Time;durP1;ratioP1;P1;durP2;ratioP2;P2;SDS_P1;SDS_P2;PMS_P1;PMS_P2;Temp;Humidity;BMP_temperature;BMP_pressure;BME280_temperature;BME280_humidity;BME280_pressure;Samples;Min_cycle;Max_cycle;Signal;HPM_P1;HPM_P2
2021/03/07 00:01:02;;;;;;;12.28;5.35;;;;;;;-3.81;100.00;101910.38;1859847;77;21188;-89
2021/03/07 00:03:30;;;;;;;9.88;5.92;;;;;;;-3.83;100.00;101903.14;1859841;77;22129;-89
2021/03/07 00:05:58;;;;;;;8.43;5.00;;;;;;;-3.83;100.00;101896.38;1859879;77;21069;-89
2021/03/07 00:08:26;;;;;;;11.48;5.67;;;;;;;-3.84;100.00;101892.13;1862108;77;21132;-89
2021/03/07 00:10:54;;;;;;;10.23;5.10;;;;;;;-3.86;100.00;101896.78;1863133;77;21184;-89
2021/03/07 00:13:23;;;;;;;9.98;5.50;;;;;;;-3.90;100.00;101889.55;1863183;76;21121;-89
2021/03/07 00:15:51;;;;;;;8.70;5.05;;;;;;;-3.94;100.00;101885.27;1847637;77;21198;-89
2021/03/07 00:18:20;;;;;;;11.03;5.20;;;;;;;-3.96;100.00;101889.49;1792655;79;21456;-89
2021/03/07 00:20:48;;;;;;;9.75;5.10;;;;;;;-3.97;100.00;101888.66;1759412;81;21071;-89
2021/03/07 00:23:16;;;;;;;8.75;5.37;;;;;;;-4.00;100.00;101887.35;1759338;81;21100;-89
2021/03/07 00:25:44;;;;;;;8.70;5.35;;;;;;;-4.02;100.00;101886.92;1759276;81;21704;-89
2021/03/07 00:28:12;;;;;;;10.93;5.10;;;;;;;-4.02;100.00;101883.10;1759270;81;21196;-89
2021/03/07 00:30:40;;;;;;;8.13;4.92;;;;;;;-4.03;100.00;101874.63;1766737;80;21204;-89
2021/03/07 00:33:10;;;;;;;12.93;5.28;;;;;;;-4.00;100.00;101873.80;1816476;78;21192;-88
2021/03/07 00:35:38;;;;;;;11.55;5.53;;;;;;;-4.01;100.00;101878.05;1807386;78;21604;-89
2021/03/07 00:38:07;;;;;;;9.13;5.42;;;;;;;-4.01;100.00;101881.00;1811975;78;21125;-89
2021/03/07 00:40:36;;;;;;;10.23;5.17;;;;;;;-4.04;100.00;101877.14;1824769;78;22856;-89
2021/03/07 00:43:04;;;;;;;10.05;4.50;;;;;;;-4.06;100.00;101872.06;1824682;78;21109;-89
2021/03/07 00:45:33;;;;;;;11.20;5.30;;;;;;;-4.07;100.00;101866.97;1825047;77;21137;-89
2021/03/07 00:48:01;;;;;;;10.90;5.65;;;;;;;-4.10;100.00;101870.75;1778406;79;21516;-89
2021/03/07 00:50:30;;;;;;;10.82;5.33;;;;;;;-4.12;100.00;101874.58;1797092;79;21173;-89
2021/03/07 00:52:58;;;;;;;12.18;5.53;;;;;;;-4.16;100.00;101873.70;1778429;80;21210;-89
2021/03/07 00:55:27;;;;;;;10.18;5.65;;;;;;;-4.17;100.00;101873.27;1797025;79;21190;-89
2021/03/07 00:57:55;;;;;;;9.85;5.05;;;;;;;-4.14;100.00;101871.16;1778339;80;21119;-89
2021/03/07 01:00:28;;;;;;;11.08;5.58;;;;;;;-4.14;100.00;101863.53;1797007;79;21167;-89
2021/03/07 01:02:57;;;;;;;10.43;5.00;;;;;;;-4.13;100.00;101869.05;1778516;80;21152;-90
2021/03/07 01:05:29;;;;;;;11.53;5.75;;;;;;;-4.15;100.00;101860.14;1795891;79;21559;-89
2021/03/07 01:07:57;;;;;;;9.58;5.33;;;;;;;-4.17;100.00;101859.28;1791676;80;21147;-88
2021/03/07 01:10:38;;;;;;;10.80;5.45;;;;;;;-4.16;100.00;101857.17;1791492;79;21491;-88
2021/03/07 01:13:11;;;;;;;8.80;5.65;;;;;;;-4.18;100.00;101852.48;1790860;80;21175;-89
2021/03/07 01:15:39;;;;;;;11.78;5.95;;;;;;;-4.19;100.00;101847.39;1788051;80;21123;-88
2021/03/07 01:18:07;;;;;;;7.20;4.90;;;;;;;-4.18;100.00;101847.39;1791484;79;22262;-88
2021/03/07 01:20:38;;;;;;;11.10;5.37;;;;;;;-4.15;100.00;101851.64;1791233;80;21127;-89
2021/03/07 01:23:07;;;;;;;;;;;;;;;-4.13;100.00;101849.53;1794140;80;21197;-90
2021/03/07 01:25:35;;;;;;;11.88;5.83;;;;;;;-4.15;100.00;101838.52;1793682;79;20233;-90
2021/03/07 01:28:05;;;;;;;12.65;6.22;;;;;;;-4.20;100.00;101840.59;1801809;79;21130;-90
2021/03/07 01:30:37;;;;;;;10.47;5.97;;;;;;;-4.22;100.00;101848.23;1802015;79;21581;-89
2021/03/07 01:33:07;;;;;;;15.90;6.42;;;;;;;-4.24;100.00;101844.82;1801733;79;21197;-89
2021/03/07 01:35:36;;;;;;;11.88;5.97;;;;;;;-4.26;100.00;101842.68;1801872;79;21264;-89
2021/03/07 01:38:05;;;;;;;10.82;5.95;;;;;;;-4.27;100.00;101840.97;1801809;79;21110;-90
2021/03/07 01:40:49;;;;;;;14.70;6.62;;;;;;;-4.27;100.00;101846.06;1801775;79;21596;-89
2021/03/07 01:43:20;;;;;;;8.90;6.05;;;;;;;-4.25;100.00;101844.82;1799357;79;21383;-88
2021/03/07 01:45:49;;;;;;;9.73;5.85;;;;;;;-4.26;100.00;101838.87;1801864;79;21565;-88
2021/03/07 01:48:19;;;;;;;12.47;6.55;;;;;;;-4.24;100.00;101846.09;1801870;79;21554;-88
2021/03/07 01:50:53;;;;;;;10.35;5.92;;;;;;;-4.23;100.00;101835.08;1801813;79;21070;-88
2021/03/07 01:53:22;;;;;;;9.53;5.72;;;;;;;-4.21;100.00;101838.49;1801812;79;21240;-89
2021/03/07 01:55:53;;;;;;;8.03;5.28;;;;;;;-4.22;100.00;101831.70;1801773;79;21572;-89
2021/03/07 01:58:29;;;;;;;;;;;;;;;-4.19;100.00;101832.97;1796818;79;21121;-88
2021/03/07 02:01:09;;;;;;;12.07;5.30;;;;;;;-4.11;100.00;101834.30;1826683;77;20260;-92
2021/03/07 02:03:53;;;;;;;9.05;5.15;;;;;;;-4.08;100.00;101838.11;1806247;77;21143;-84
2021/03/07 02:06:21;;;;;;;;;;;;;;;-4.07;100.00;101839.81;1789319;80;21155;-84
2021/03/07 02:08:51;;;;;;;9.98;5.22;;;;;;;-4.03;100.00;101845.77;1762271;80;21267;-85
2021/03/07 02:11:19;;;;;;;14.47;6.22;;;;;;;-4.01;100.00;101838.60;1800280;79;21074;-84
2021/03/07 02:13:48;;;;;;;7.58;4.70;;;;;;;-3.94;100.00;101842.01;1831108;78;21587;-84
2021/03/07 02:16:20;;;;;;;14.95;6.75;;;;;;;-3.92;100.00;101842.00;1830990;77;21162;-84
2021/03/07 02:18:51;;;;;;;12.63;6.90;;;;;;;-3.96;100.00;101843.28;1817772;77;21549;-84
2021/03/07 02:21:36;;;;;;;10.65;6.42;;;;;;;-4.02;100.00;101844.94;1783148;79;21216;-84
2021/03/07 02:24:16;;;;;;;13.20;7.00;;;;;;;-4.07;100.00;101839.81;1816836;79;21577;-84
2021/03/07 02:26:49;;;;;;;15.35;8.05;;;;;;;-4.14;100.00;101842.77;1816808;78;21627;-84
2021/03/07 02:29:20;;;;;;;14.28;8.33;;;;;;;-4.22;100.00;101842.28;1809460;78;21174;-85
2021/03/07 02:31:56;;;;;;;14.85;7.78;;;;;;;-4.33;100.00;101844.36;1816975;78;21147;-85
2021/03/07 02:34:44;;;;;;;21.62;8.35;;;;;;;-4.42;100.00;101843.42;1798692;79;21182;-85
2021/03/07 02:37:14;;;;;;;15.20;8.15;;;;;;;-4.51;100.00;101841.24;1782345;80;21154;-84
2021/03/07 02:39:45;;;;;;;13.90;7.55;;;;;;;-4.57;100.00;101839.94;1786150;79;21639;-84
2021/03/07 02:42:23;;;;;;;16.30;7.20;;;;;;;-4.60;100.00;101844.58;1786590;79;21697;-85
2021/03/07 02:45:05;;;;;;;14.70;8.15;;;;;;;-4.58;100.00;101855.19;1764304;80;21085;-84
2021/03/07 02:47:35;;;;;;;13.22;6.70;;;;;;;-4.60;100.00;101847.52;1824209;78;21508;-84
2021/03/07 02:50:13;;;;;;;12.63;7.12;;;;;;;-4.60;100.00;101847.52;1824883;77;21174;-85
2021/03/07 02:53:07;;;;;;;13.80;7.12;;;;;;;-4.59;100.00;101849.23;1824985;77;21444;-84
2021/03/07 02:55:38;;;;;;;11.38;7.58;;;;;;;-4.61;100.00;101849.66;1819203;77;21206;-84
2021/03/07 02:58:12;;;;;;;14.53;8.08;;;;;;;-4.60;100.00;101848.39;1824991;77;21107;-85
2021/03/07 03:00:49;;;;;;;10.72;6.80;;;;;;;-4.61;100.00;101847.13;1824969;77;22279;-84
2021/03/07 03:03:17;;;;;;;12.00;7.45;;;;;;;-4.63;100.00;101848.80;1823724;78;21100;-84
2021/03/07 03:05:45;;;;;;;16.42;8.35;;;;;;;-4.67;100.00;101845.78;1824966;78;21147;-84
2021/03/07 03:08:16;;;;;;;15.23;8.40;;;;;;;-4.70;100.00;101840.25;1808317;78;21643;-84
2021/03/07 03:10:45;;;;;;;13.45;7.87;;;;;;;-4.72;100.00;101844.47;1821860;77;21198;-84
2021/03/07 03:13:16;;;;;;;16.48;8.95;;;;;;;-4.72;100.00;101841.09;1819718;78;21270;-84
2021/03/07 03:15:46;;;;;;;16.75;9.33;;;;;;;-4.70;100.00;101845.77;1821614;78;21583;-84
2021/03/07 03:18:17;;;;;;;18.02;9.78;;;;;;;-4.73;100.00;101845.73;1821847;77;21528;-84
2021/03/07 03:20:45;;;;;;;18.00;10.70;;;;;;;-4.73;100.00;101838.98;1821816;77;21532;-84
2021/03/07 03:23:14;;;;;;;19.80;10.95;;;;;;;-4.71;100.00;101841.52;1821713;77;21075;-84
2021/03/07 03:25:46;;;;;;;18.82;10.90;;;;;;;-4.72;100.00;101839.38;1821673;78;21373;-84
2021/03/07 03:28:16;;;;;;;18.82;11.40;;;;;;;-4.71;100.00;101838.98;1818944;78;21615;-84
2021/03/07 03:30:44;;;;;;;24.70;12.93;;;;;;;-4.74;100.00;101824.56;1821616;78;21282;-84
2021/03/07 03:33:12;;;;;;;23.25;12.85;;;;;;;-4.76;100.00;101821.98;1821498;78;21155;-84
2021/03/07 03:35:41;;;;;;;22.65;12.98;;;;;;;-4.77;100.00;101824.53;1821548;78;21130;-84
2021/03/07 03:38:09;;;;;;;22.17;12.93;;;;;;;-4.78;100.00;101812.25;1821741;78;21520;-84
2021/03/07 03:40:38;;;;;;;24.37;13.32;;;;;;;-4.78;100.00;101814.80;1821529;77;21144;-84
2021/03/07 03:43:09;;;;;;;28.67;13.62;;;;;;;-4.77;100.00;101819.44;1821654;78;21135;-84
2021/03/07 03:45:42;;;;;;;31.45;14.68;;;;;;;-4.78;100.00;101814.80;1821665;78;21080;-84
2021/03/07 03:48:17;;;;;;;28.27;14.33;;;;;;;-4.79;100.00;101818.17;1821647;78;21120;-84
2021/03/07 03:50:47;;;;;;;28.45;14.87;;;;;;;-4.78;100.00;101813.92;1817250;78;21200;-84
2021/03/07 03:53:18;;;;;;;28.62;14.50;;;;;;;-4.78;100.00;101812.66;1821522;78;21128;-84
2021/03/07 03:55:49;;;;;;;28.40;15.10;;;;;;;-4.77;100.00;101810.55;1821605;77;21127;-84
2021/03/07 03:58:22;;;;;;;33.10;16.97;;;;;;;-4.76;100.00;101809.72;1821692;78;21109;-84
2021/03/07 04:00:52;;;;;;;31.40;16.30;;;;;;;-4.76;100.00;101805.47;1818198;78;21545;-84
2021/03/07 04:03:21;;;;;;;28.35;16.87;;;;;;;-4.73;100.00;101802.53;1759692;80;22123;-83
2021/03/07 04:05:52;;;;;;;31.97;15.03;;;;;;;-4.72;100.00;101801.69;1821600;78;21151;-83
2021/03/07 04:08:22;;;;;;;28.07;14.78;;;;;;;-4.69;100.00;101800.45;1821898;78;21154;-84
2021/03/07 04:10:52;;;;;;;24.92;14.20;;;;;;;-4.63;100.00;101800.48;1827474;78;21063;-84
2021/03/07 04:13:24;;;;;;;26.70;14.58;;;;;;;-4.56;100.00;101803.50;1827631;78;21167;-84
2021/03/07 04:15:56;;;;;;;26.93;15.60;;;;;;;-4.46;100.00;101803.13;1812876;78;21450;-84
2021/03/07 04:18:27;;;;;;;24.35;14.23;;;;;;;-4.39;100.00;101795.13;1794788;80;21219;-84
2021/03/07 04:20:56;;;;;;;25.62;14.03;;;;;;;-4.32;100.00;101796.87;1795053;80;21136;-84
2021/03/07 04:23:25;;;;;;;28.98;14.90;;;;;;;-4.26;100.00;101798.59;1795031;80;21216;-84
2021/03/07 04:25:53;;;;;;;30.80;16.27;;;;;;;-4.22;100.00;101802.45;1794949;80;21164;-84
2021/03/07 04:28:24;;;;;;;39.15;19.45;;;;;;;-4.17;100.00;101807.13;1794888;80;21262;-84
2021/03/07 04:30:53;;;;;;;35.67;19.83;;;;;;;-4.12;100.00;101796.97;1760259;81;21198;-84
2021/03/07 04:33:22;;;;;;;42.15;21.07;;;;;;;-4.09;100.00;101800.81;1763535;79;21426;-84
2021/03/07 04:35:51;;;;;;;44.80;23.10;;;;;;;-4.06;100.00;101790.63;1826498;78;21073;-84
2021/03/07 04:38:21;;;;;;;36.23;19.87;;;;;;;-4.01;100.00;101790.66;1827653;78;21526;-84
2021/03/07 04:40:49;;;;;;;44.75;24.05;;;;;;;-3.97;100.00;101796.20;1816086;78;21182;-85
2021/03/07 04:43:19;;;;;;;51.02;27.95;;;;;;;-3.92;100.00;101794.52;1794845;80;21485;-84
2021/03/07 04:45:47;;;;;;;43.78;24.80;;;;;;;-3.87;100.00;101789.45;1815342;77;21689;-84
2021/03/07 04:48:15;;;;;;;53.30;26.85;;;;;;;-3.83;100.00;101783.51;1818560;78;21108;-84
2021/03/07 04:50:44;;;;;;;51.55;25.70;;;;;;;-3.76;100.00;101783.95;1827680;78;21158;-84
2021/03/07 04:53:12;;;;;;;51.70;27.05;;;;;;;-3.69;100.00;101782.29;1827644;78;21357;-84
2021/03/07 04:55:40;;;;;;;55.95;29.00;;;;;;;-3.63;100.00;101783.57;1827606;78;21174;-84
2021/03/07 04:58:08;;;;;;;58.83;30.45;;;;;;;-3.58;100.00;101783.18;1827553;78;21150;-84
2021/03/07 05:00:36;;;;;;;59.67;30.68;;;;;;;-3.54;100.00;101783.59;1827550;78;21218;-83
2021/03/07 05:03:04;;;;;;;50.67;26.10;;;;;;;-3.52;100.00;101781.91;1804356;78;21174;-83
2021/03/07 05:05:32;;;;;;;48.50;25.08;;;;;;;-3.50;100.00;101782.77;1814471;78;21358;-83
2021/03/07 05:08:00;;;;;;;42.65;22.37;;;;;;;-3.47;100.00;101776.83;1794918;80;21610;-84
2021/03/07 05:10:29;;;;;;;79.27;23.95;;;;;;;-3.44;100.00;101775.55;1822010;78;21119;-84
2021/03/07 05:12:58;;;;;;;39.70;20.35;;;;;;;-3.38;100.00;101781.08;1830855;78;21083;-84
2021/03/07 05:15:26;;;;;;;39.40;19.40;;;;;;;-3.22;100.00;101771.34;1830701;78;21451;-84
2021/03/07 05:17:55;;;;;;;51.02;21.60;;;;;;;-3.04;100.00;101776.86;1830814;78;21354;-85
2021/03/07 05:20:23;;;;;;;42.70;20.80;;;;;;;-2.89;100.00;101772.63;1820311;78;21134;-83
2021/03/07 05:22:51;;;;;;;38.85;20.27;;;;;;;-2.78;100.00;101766.24;1798009;79;21146;-83
2021/03/07 05:25:20;;;;;;;31.95;18.55;;;;;;;-2.68;100.00;101758.98;1798019;79;21578;-84
2021/03/07 05:27:48;;;;;;;37.17;17.85;;;;;;;-2.60;100.00;101754.72;1814140;78;21139;-84
2021/03/07 05:30:17;;;;;;;41.28;19.77;;;;;;;-2.55;100.00;101755.58;1823192;78;21445;-83
2021/03/07 05:32:45;;;;;;;43.33;20.32;;;;;;;-2.46;100.00;101764.90;1817108;78;21198;-83
2021/03/07 05:35:17;;;;;;;36.08;19.62;;;;;;;-2.35;100.00;101764.86;1798275;79;21618;-83
2021/03/07 05:37:45;;;;;;;34.90;19.30;;;;;;;-2.29;100.00;101769.98;1798265;79;21571;-84
2021/03/07 05:40:13;;;;;;;41.00;20.15;;;;;;;-2.23;100.00;101775.05;1794036;79;21581;-84
2021/03/07 05:42:43;;;;;;;35.33;20.72;;;;;;;-2.16;100.00;101772.03;1798323;79;21365;-84
2021/03/07 05:45:13;;;;;;;42.43;22.30;;;;;;;-2.08;100.00;101766.91;1799453;79;21134;-84
2021/03/07 05:47:41;;;;;;;49.10;25.43;;;;;;;-2.06;100.00;101776.26;1798306;79;21079;-91
2021/03/07 05:50:10;;;;;;;47.13;26.30;;;;;;;-2.06;100.00;101771.16;1821745;78;21575;-83
2021/03/07 05:52:39;;;;;;;54.77;27.20;;;;;;;-2.19;100.00;101768.64;1798397;79;21134;-84
2021/03/07 05:55:08;;;;;;;49.88;27.22;;;;;;;-2.29;100.00;101766.14;1798502;79;22266;-85
2021/03/07 05:57:38;;;;;;;46.37;25.50;;;;;;;-2.33;100.00;101766.16;1826794;78;21147;-84
2021/03/07 06:00:08;;;;;;;45.50;26.10;;;;;;;-2.36;100.00;101763.60;1831338;78;21155;-84
2021/03/07 06:02:36;;;;;;;56.55;29.30;;;;;;;-2.33;100.00;101763.17;1830998;78;21538;-87
2021/03/07 06:05:05;;;;;;;39.38;23.83;;;;;;;-2.28;100.00;101761.44;1809197;78;21189;-86
2021/03/07 06:07:35;;;;;;;47.30;26.42;;;;;;;-2.27;100.00;101752.09;1819672;78;22338;-85
2021/03/07 06:10:19;;;;;;;49.65;28.17;;;;;;;-2.24;100.00;101751.66;1796629;78;21578;-85
2021/03/07 06:13:09;;;;;;;47.65;28.17;;;;;;;-2.18;100.00;101752.48;1789380;80;21551;-85
2021/03/07 06:15:43;;;;;;;47.95;27.48;;;;;;;-2.13;100.00;101750.78;1786591;80;21186;-85
2021/03/07 06:18:22;;;;;;;56.05;28.98;;;;;;;-2.13;100.00;101750.34;1807788;77;21151;-85
2021/03/07 06:20:53;;;;;;;49.45;25.17;;;;;;;-2.13;100.00;101748.23;1806356;78;22060;-86
2021/03/07 06:23:36;;;;;;;48.90;28.30;;;;;;;-2.05;100.00;101755.42;1820884;78;21162;-85
2021/03/07 06:26:11;;;;;;;44.27;22.25;;;;;;;-1.97;100.00;101757.92;1817160;78;21206;-85
2021/03/07 06:28:39;;;;;;;32.80;19.32;;;;;;;-1.93;100.00;101746.42;1759096;80;21130;-86
2021/03/07 06:31:28;;;;;;;57.00;29.67;;;;;;;-1.88;100.00;101745.13;1820948;78;21128;-84
2021/03/07 06:33:58;;;;;;;84.72;36.23;;;;;;;-1.78;100.00;101742.95;1821860;78;22261;-84
2021/03/07 06:36:29;;;;;;;67.92;30.10;;;;;;;-1.70;100.00;101742.89;1821741;78;21172;-83
2021/03/07 06:39:07;;;;;;;37.90;20.08;;;;;;;-1.64;100.00;101742.01;1821725;78;21113;-83
2021/03/07 06:41:36;;;;;;;27.95;17.23;;;;;;;-1.60;100.00;101740.70;1814001;77;21171;-84
2021/03/07 06:47:58;;;;;;;25.15;13.95;;;;;;;-1.45;100.00;101723.57;1832473;77;22656;-91
2021/03/07 06:50:28;;;;;;;23.32;12.93;;;;;;;-1.49;100.00;101723.19;1829608;77;21166;-87
2021/03/07 06:53:00;;;;;;;24.37;12.75;;;;;;;-1.48;100.00;101726.14;1801598;78;21667;-87
2021/03/07 06:55:43;;;;;;;20.40;12.83;;;;;;;-1.45;100.00;101723.57;1793002;80;21107;-88
2021/03/07 06:58:16;;;;;;;19.37;11.97;;;;;;;-1.41;100.00;101720.15;1791197;80;21166;-88
2021/03/07 07:00:45;;;;;;;23.65;12.98;;;;;;;-1.36;100.00;101717.56;1792812;80;21075;-87
2021/03/07 07:03:15;;;;;;;25.48;13.18;;;;;;;-1.31;100.00;101711.53;1795464;78;21352;-88
2021/03/07 07:05:49;;;;;;;24.77;13.38;;;;;;;-1.25;100.00;101714.92;1814022;78;20948;-85
2021/03/07 07:08:39;;;;;;;25.82;13.80;;;;;;;-1.19;100.00;101709.75;1796934;78;21501;-86
2021/03/07 07:11:07;;;;;;;21.97;12.20;;;;;;;-1.13;100.00;101712.25;1802735;78;21186;-86
2021/03/07 07:13:47;;;;;;;18.75;11.25;;;;;;;-1.05;100.00;101712.19;1792623;80;21154;-86
2021/03/07 07:16:17;;;;;;;14.98;9.85;;;;;;;-1.01;100.00;101704.48;1805315;78;21166;-87
2021/03/07 07:18:49;;;;;;;17.12;8.93;;;;;;;-0.94;100.00;101699.30;1816876;78;21219;-87
2021/03/07 07:21:18;;;;;;;15.30;9.60;;;;;;;-0.87;100.00;101698.37;1796207;78;21217;-86
2021/03/07 07:23:49;;;;;;;13.83;9.15;;;;;;;-0.80;100.00;101698.73;1799413;78;21162;-87
2021/03/07 07:26:17;;;;;;;21.93;15.45;;;;;;;-0.75;100.00;101700.80;1823788;78;21123;-87
2021/03/07 07:28:45;;;;;;;16.52;10.90;;;;;;;-0.70;100.00;101693.94;1815593;78;21067;-87
2021/03/07 07:31:30;;;;;;;27.42;18.12;;;;;;;-0.65;100.00;101692.61;1792628;80;21080;-87
2021/03/07 07:34:15;;;;;;;29.75;19.87;;;;;;;-0.64;100.00;101678.52;1790629;80;21171;-86
2021/03/07 07:37:08;;;;;;;51.58;29.48;;;;;;;-0.58;100.00;101675.45;1791518;80;21103;-87
2021/03/07 07:39:39;;;;;;;43.90;28.05;;;;;;;-0.52;100.00;101670.30;1823767;78;21519;-87
2021/03/07 07:42:25;;;;;;;;;;;;;;;-0.47;100.00;101665.95;1797084;78;21122;-87
2021/03/07 07:45:02;;;;;;;11.25;7.30;;;;;;;-0.43;97.56;101667.59;1819749;78;22240;-87
2021/03/07 07:47:46;;;;;;;8.98;5.42;;;;;;;-0.39;92.71;101669.27;1779221;80;21174;-87
2021/03/07 07:53:07;;;;;;;10.93;6.67;;;;;;;-0.40;87.80;101663.73;1812580;78;21531;-87
2021/03/07 07:55:56;;;;;;;13.13;6.12;;;;;;;-0.35;84.40;101659.84;1812643;78;21155;-87
2021/03/07 07:58:41;;;;;;;10.98;6.28;;;;;;;-0.29;82.74;101665.31;1812218;79;21179;-87
2021/03/07 08:01:12;;;;;;;6.85;4.65;;;;;;;-0.26;83.99;101662.28;1812002;79;21624;-87
2021/03/07 08:03:49;;;;;;;6.08;3.40;;;;;;;-0.21;80.49;101663.05;1811923;78;21103;-88
2021/03/07 08:06:31;;;;;;;8.18;4.92;;;;;;;-0.22;76.10;101658.80;1811948;79;21567;-88
2021/03/07 08:09:01;;;;;;;7.08;4.87;;;;;;;-0.24;75.31;101652.84;1812080;78;21072;-88
2021/03/07 08:11:32;;;;;;;5.17;2.87;;;;;;;-0.27;76.15;101641.80;1773805;80;21314;-88
2021/03/07 08:14:01;;;;;;;9.35;4.45;;;;;;;-0.27;74.48;101632.84;1773818;80;21136;-87
2021/03/07 08:16:45;;;;;;;6.05;2.85;;;;;;;-0.24;76.42;101638.77;1773932;80;21635;-87
2021/03/07 08:19:19;;;;;;;10.55;7.00;;;;;;;-0.24;71.44;101630.25;1773853;80;21087;-87
2021/03/07 08:22:07;;;;;;;12.07;7.67;;;;;;;-0.18;77.36;101625.91;1773887;80;21195;-87
2021/03/07 08:24:57;;;;;;;10.85;6.80;;;;;;;-0.08;78.89;101613.81;1778503;80;22367;-87
2021/03/07 08:27:41;;;;;;;19.62;14.75;;;;;;;0.04;76.21;101610.22;1811796;79;21131;-87
2021/03/07 08:30:17;;;;;;;12.15;7.35;;;;;;;0.08;77.02;101603.33;1803899;78;21151;-87
2021/03/07 08:32:46;;;;;;;9.90;5.42;;;;;;;0.08;78.62;101593.91;1773952;80;21064;-87
2021/03/07 08:35:22;;;;;;;6.80;4.58;;;;;;;0.08;74.54;101586.69;1773869;80;21152;-87
2021/03/07 08:38:14;;;;;;;6.97;2.30;;;;;;;0.07;74.50;101588.83;1773921;80;21244;-87
2021/03/07 08:40:46;;;;;;;6.95;4.22;;;;;;;-0.06;69.87;101581.77;1773835;80;21603;-87
2021/03/07 08:43:30;;;;;;;4.50;2.70;;;;;;;-0.15;73.61;101580.20;1758955;80;25533;-86
2021/03/07 08:46:16;;;;;;;4.80;3.08;;;;;;;-0.19;72.27;101581.10;1773903;80;21227;-86
2021/03/07 08:48:49;;;;;;;10.00;4.58;;;;;;;-0.23;73.27;101573.07;1773986;80;21213;-87
2021/03/07 08:51:20;;;;;;;6.58;3.77;;;;;;;-0.19;76.44;101573.42;1773812;80;21626;-87
2021/03/07 08:53:48;;;;;;;4.75;2.62;;;;;;;-0.15;74.37;101582.77;1770850;80;21139;-86
2021/03/07 08:56:16;;;;;;;8.30;4.30;;;;;;;-0.17;67.18;101561.03;1773836;80;21103;-86
2021/03/07 08:58:49;;;;;;;7.17;5.15;;;;;;;-0.16;70.65;101572.11;1773891;80;21437;-86
2021/03/07 09:01:17;;;;;;;7.78;4.70;;;;;;;-0.06;71.94;101575.36;1771881;80;21175;-87
2021/03/07 09:04:00;;;;;;;10.38;6.60;;;;;;;0.04;71.11;101569.23;1773906;80;21623;-87
2021/03/07 09:06:37;;;;;;;6.97;3.50;;;;;;;0.15;73.79;101569.92;1773885;80;21195;-87
2021/03/07 09:09:15;;;;;;;7.42;5.30;;;;;;;0.14;64.09;101577.61;1774006;80;21199;-86
2021/03/07 09:12:05;;;;;;;9.08;6.05;;;;;;;0.07;64.59;101570.90;1773760;80;21179;-87
2021/03/07 09:14:37;;;;;;;8.03;5.37;;;;;;;0.08;66.78;101579.00;1773870;80;21257;-87
2021/03/07 09:17:09;;;;;;;9.85;5.87;;;;;;;0.13;62.98;101583.60;1800906;79;21187;-87
2021/03/07 09:19:40;;;;;;;9.85;6.33;;;;;;;0.14;62.63;101581.04;1787750;79;21545;-87
2021/03/07 09:22:23;;;;;;;9.88;6.35;;;;;;;0.20;64.88;101572.38;1800495;79;21646;-87
2021/03/07 09:25:00;;;;;;;9.90;5.00;;;;;;;0.30;65.43;101578.22;1813290;79;21128;-87
2021/03/07 09:27:35;;;;;;;6.92;4.50;;;;;;;0.31;62.25;101572.23;1792778;78;21154;-87
2021/03/07 09:30:17;;;;;;;7.95;4.20;;;;;;;0.28;65.74;101575.66;1781650;79;21363;-87
2021/03/07 09:32:47;;;;;;;;;;;;;;;0.25;62.98;101577.43;1799459;79;21103;-87
2021/03/07 09:35:36;;;;;;;13.33;5.83;;;;;;;0.17;67.14;101569.89;1806026;78;20291;-88
2021/03/07 09:38:14;;;;;;;10.75;6.72;;;;;;;0.14;64.68;101571.20;1782581;79;21169;-87
2021/03/07 09:40:44;;;;;;;11.20;5.40;;;;;;;0.16;67.20;101563.07;1769304;80;21085;-88
2021/03/07 09:43:19;;;;;;;8.85;6.53;;;;;;;0.25;70.77;101562.06;1845148;77;21227;-87
2021/03/07 09:45:50;;;;;;;11.35;7.70;;;;;;;0.35;71.43;101556.37;1842407;77;21075;-87
2021/03/07 09:48:22;;;;;;;12.70;8.45;;;;;;;0.43;70.30;101550.67;1819368;77;21167;-87
2021/03/07 09:50:51;;;;;;;15.32;9.58;;;;;;;0.50;68.14;101544.98;1775910;79;21203;-87
2021/03/07 09:53:20;;;;;;;12.05;7.62;;;;;;;0.58;70.56;101538.00;1789463;78;21088;-87
2021/03/07 09:55:48;;;;;;;12.20;9.45;;;;;;;0.70;68.18;101527.95;1789277;80;21201;-87
2021/03/07 09:58:17;;;;;;;15.30;10.00;;;;;;;0.80;67.30;101518.37;1792162;78;21166;-87
2021/03/07 10:00:50;;;;;;;12.47;8.10;;;;;;;0.88;67.25;101518.63;1789313;78;21460;-87
2021/03/07 10:03:25;;;;;;;10.13;6.17;;;;;;;0.96;67.08;101508.64;1806096;78;21696;-87
2021/03/07 10:06:10;;;;;;;12.13;7.60;;;;;;;1.10;63.29;101506.62;1804366;78;21115;-87
2021/03/07 10:08:40;;;;;;;11.75;6.65;;;;;;;1.17;64.92;101486.38;1789281;80;21373;-87
2021/03/07 10:11:13;;;;;;;7.40;5.13;;;;;;;1.31;63.28;101494.23;1789426;80;21583;-87
2021/03/07 10:13:42;;;;;;;6.60;4.42;;;;;;;1.31;62.54;101487.36;1806216;78;21504;-87
2021/03/07 10:16:12;;;;;;;7.87;3.80;;;;;;;1.24;65.38;101473.80;1803415;78;21182;-86
2021/03/07 10:18:41;;;;;;;5.45;3.27;;;;;;;1.16;58.97;101460.75;1793783;78;21055;-86
2021/03/07 10:21:09;;;;;;;14.68;7.10;;;;;;;1.05;59.08;101470.80;1821792;78;21360;-87
2021/03/07 10:23:37;;;;;;;8.40;5.55;;;;;;;0.96;61.78;101465.03;1816855;78;21603;-87
2021/03/07 10:26:05;;;;;;;9.80;6.40;;;;;;;0.94;60.68;101465.91;1810481;78;21111;-87
2021/03/07 10:28:36;;;;;;;12.40;6.83;;;;;;;0.99;63.52;101460.69;1796864;78;21531;-87
2021/03/07 10:31:12;;;;;;;12.68;8.30;;;;;;;1.10;66.46;101449.77;1816046;78;21103;-87
2021/03/07 10:33:41;;;;;;;14.90;8.90;;;;;;;1.27;67.27;101440.84;1822624;78;21126;-87
2021/03/07 10:36:17;;;;;;;12.23;7.62;;;;;;;1.39;63.10;101435.41;1801383;78;21599;-87
2021/03/07 10:39:10;;;;;;;13.35;8.95;;;;;;;1.42;63.03;101430.64;1827735;78;21138;-87
2021/03/07 10:41:38;;;;;;;21.73;13.43;;;;;;;1.39;63.67;101425.14;1827296;78;21602;-88
2021/03/07 10:44:08;;;;;;;14.98;11.08;;;;;;;1.38;65.32;101423.91;1827535;78;21214;-87
2021/03/07 10:46:42;;;;;;;14.10;9.58;;;;;;;1.38;63.07;101409.34;1827739;78;21354;-87
2021/03/07 10:49:11;;;;;;;16.10;10.20;;;;;;;1.39;63.87;101407.63;1817549;78;21123;-88
2021/03/07 10:51:41;;;;;;;15.65;9.75;;;;;;;1.39;66.02;101404.61;1820495;78;21563;-87
2021/03/07 10:54:09;;;;;;;12.90;8.30;;;;;;;1.45;64.90;101401.48;1820315;78;21234;-88
2021/03/07 10:56:40;;;;;;;15.15;10.68;;;;;;;1.51;66.25;101398.34;1820515;78;21147;-88
2021/03/07 10:59:10;;;;;;;;;;;;;;;1.57;64.78;101394.33;1823388;78;22265;-88
2021/03/07 11:01:39;;;;;;;13.78;7.70;;;;;;;1.62;64.53;101395.95;1820854;78;20495;-89
2021/03/07 11:04:11;;;;;;;11.78;7.03;;;;;;;1.61;66.25;101391.70;1819325;78;21191;-88
2021/03/07 11:06:39;;;;;;;12.25;7.62;;;;;;;1.52;63.32;101379.95;1803244;79;21226;-88
2021/03/07 11:09:09;;;;;;;14.00;6.53;;;;;;;1.49;67.32;101371.02;1797132;79;21166;-88
2021/03/07 11:11:41;;;;;;;13.88;9.30;;;;;;;1.51;66.36;101366.70;1807531;79;21528;-87
2021/03/07 11:14:08;;;;;;;14.07;8.28;;;;;;;1.47;69.56;101349.25;1802012;79;21151;-86
2021/03/07 11:16:36;;;;;;;12.90;8.65;;;;;;;1.50;70.38;101344.48;1801511;79;21629;-86
2021/03/07 11:19:06;;;;;;;12.90;8.60;;;;;;;1.60;69.53;101347.22;1794104;79;21166;-87
2021/03/07 11:21:35;;;;;;;15.98;9.88;;;;;;;1.62;65.73;101348.00;1804970;79;21132;-86
2021/03/07 11:24:05;;;;;;;13.08;8.35;;;;;;;1.61;68.39;101346.31;1808669;79;21509;-87
2021/03/07 11:26:33;;;;;;;13.28;8.60;;;;;;;1.65;67.85;101345.78;1808518;78;21202;-86
2021/03/07 11:29:01;;;;;;;14.58;9.70;;;;;;;1.66;66.76;101339.35;1808669;78;21143;-86
2021/03/07 11:31:29;;;;;;;12.40;8.80;;;;;;;1.62;70.01;101336.90;1808643;78;21982;-87
2021/03/07 11:33:57;;;;;;;13.08;9.23;;;;;;;1.62;68.12;101333.88;1799871;78;21242;-86
2021/03/07 11:36:25;;;;;;;15.32;9.80;;;;;;;1.60;68.88;101330.95;1795182;79;21637;-86
2021/03/07 11:38:54;;;;;;;12.98;9.40;;;;;;;1.56;70.79;101314.34;1795256;79;21153;-87
2021/03/07 11:41:23;;;;;;;14.53;9.48;;;;;;;1.59;71.93;101314.72;1795443;79;21138;-87
2021/03/07 11:43:51;;;;;;;15.93;11.40;;;;;;;1.63;70.98;101314.20;1795388;79;21142;-88